Time;durP1;ratioP1;P1;durP2;ratioP2;P2;SDS_P1;SDS_P2;PMS_P1;PMS_P2;Temp;Humidity;BMP_temperature;BMP_pressure;BME280_temperature;BME280_humidity;BME280_pressure;Samples;Min_cycle;Max_cycle;Signal;HPM_P1;HPM_P2
2024/04/23 00:00:07;;;;;;;9.93;5.47;;;;;;;;;;5529619;25;20286;-70
2024/04/23 00:02:33;;;;;;;11.67;6.40;;;;;;;;;;5524441;25;20232;-70
2024/04/23 00:04:58;;;;;;;7.43;5.43;;;;;;;;;;5538613;25;20232;-70
2024/04/23 00:07:24;;;;;;;12.63;5.77;;;;;;;;;;5506712;25;20248;-70
2024/04/23 00:09:49;;;;;;;10.53;6.13;;;;;;;;;;5524871;25;20829;-70
2024/04/23 00:12:15;;;;;;;11.40;6.87;;;;;;;;;;5526512;25;20262;-71
2024/04/23 00:14:43;;;;;;;10.10;6.33;;;;;;;;;;5537074;25;20247;-69
2024/04/23 00:17:08;;;;;;;12.87;6.80;;;;;;;;;;5520365;25;20352;-70
2024/04/23 00:19:34;;;;;;;10.33;6.20;;;;;;;;;;5520968;25;20235;-70
2024/04/23 00:21:59;;;;;;;10.60;6.10;;;;;;;;;;5519085;26;20348;-70
2024/04/23 00:24:25;;;;;;;12.50;6.60;;;;;;;;;;5529140;25;20277;-70
2024/04/23 00:26:59;;;;;;;9.47;6.23;;;;;;;;;;5515210;25;20286;-70
2024/04/23 00:29:25;;;;;;;10.97;6.47;;;;;;;;;;5519170;25;20278;-71
2024/04/23 00:31:51;;;;;;;9.93;6.83;;;;;;;;;;5522474;25;20275;-71
2024/04/23 00:34:16;;;;;;;11.03;6.70;;;;;;;;;;5510686;25;20294;-71
2024/04/23 00:37:02;;;;;;;14.23;6.80;;;;;;;;;;5520821;25;20227;-71
2024/04/23 00:39:27;;;;;;;13.13;7.03;;;;;;;;;;5520797;25;20601;-70
2024/04/23 00:41:53;;;;;;;12.63;6.83;;;;;;;;;;5525659;25;20239;-70
2024/04/23 00:44:18;;;;;;;10.57;6.50;;;;;;;;;;5522389;25;20339;-70
2024/04/23 00:46:44;;;;;;;10.73;7.10;;;;;;;;;;5522583;26;20789;-70
2024/04/23 00:49:15;;;;;;;10.93;7.00;;;;;;;;;;5518993;26;20247;-70
2024/04/23 00:51:45;;;;;;;11.37;7.70;;;;;;;;;;5512834;25;20240;-71
2024/04/23 00:54:12;;;;;;;11.33;7.03;;;;;;;;;;5525322;25;20236;-70
2024/04/23 00:56:38;;;;;;;13.77;7.67;;;;;;;;;;5520958;25;20587;-70
2024/04/23 00:59:06;;;;;;;12.20;7.63;;;;;;;;;;5513980;26;20262;-70
2024/04/23 01:01:35;;;;;;;8.80;6.40;;;;;;;;;;5487900;25;20285;-70
2024/04/23 01:04:02;;;;;;;12.10;7.67;;;;;;;;;;5507509;25;20703;-70
2024/04/23 01:06:28;;;;;;;13.93;7.60;;;;;;;;;;5542333;25;20231;-70
2024/04/23 01:08:54;;;;;;;13.47;7.60;;;;;;;;;;5536416;25;20253;-70
2024/04/23 01:11:19;;;;;;;12.83;6.73;;;;;;;;;;5519527;25;20707;-70
2024/04/23 01:13:44;;;;;;;12.13;7.27;;;;;;;;;;5517676;25;20731;-70
2024/04/23 01:16:10;;;;;;;13.67;7.03;;;;;;;;;;5529997;25;20674;-70
2024/04/23 01:18:36;;;;;;;13.90;7.43;;;;;;;;;;5520657;25;20360;-70
2024/04/23 01:21:04;;;;;;;12.93;7.23;;;;;;;;;;5518314;25;20259;-70
2024/04/23 01:23:41;;;;;;;13.13;7.50;;;;;;;;;;5514077;25;20294;-70
2024/04/23 01:26:08;;;;;;;12.93;7.93;;;;;;;;;;5513845;25;20364;-70
2024/04/23 01:28:37;;;;;;;12.73;7.63;;;;;;;;;;5520944;25;20795;-70
2024/04/23 01:31:08;;;;;;;11.20;7.10;;;;;;;;;;5517575;25;20712;-70
2024/04/23 01:33:37;;;;;;;13.40;7.67;;;;;;;;;;5512403;25;20244;-70
2024/04/23 01:36:04;;;;;;;13.90;7.97;;;;;;;;;;5523506;25;20233;-70
2024/04/23 01:38:32;;;;;;;14.73;7.67;;;;;;;;;;5553816;25;20236;-70
2024/04/23 01:40:58;;;;;;;13.63;8.50;;;;;;;;;;5512530;25;20760;-70
2024/04/23 01:43:25;;;;;;;14.90;8.53;;;;;;;;;;5519184;25;20291;-70
2024/04/23 01:45:51;;;;;;;12.87;7.83;;;;;;;;;;5520421;25;20264;-70
2024/04/23 01:48:17;;;;;;;14.03;7.63;;;;;;;;;;5514493;25;20710;-70
2024/04/23 01:50:42;;;;;;;14.30;8.63;;;;;;;;;;5513573;25;20263;-70
2024/04/23 01:53:08;;;;;;;17.90;7.97;;;;;;;;;;5515385;25;20275;-70
2024/04/23 01:55:33;;;;;;;12.63;7.83;;;;;;;;;;5512265;25;20236;-70
2024/04/23 01:57:59;;;;;;;13.40;8.27;;;;;;;;;;5518935;25;20267;-70
2024/04/23 02:00:26;;;;;;;14.23;7.87;;;;;;;;;;5519491;25;20232;-70
2024/04/23 02:02:52;;;;;;;15.33;8.73;;;;;;;;;;5514922;26;20274;-70
2024/04/23 02:05:18;;;;;;;13.90;8.43;;;;;;;;;;5518160;25;20278;-70
2024/04/23 02:07:44;;;;;;;14.47;8.60;;;;;;;;;;5525955;25;20228;-71
2024/04/23 02:10:10;;;;;;;18.70;9.60;;;;;;;;;;5520989;25;20228;-70
2024/04/23 02:12:38;;;;;;;14.63;8.97;;;;;;;;;;5532971;25;20290;-70
2024/04/23 02:15:04;;;;;;;14.90;9.40;;;;;;;;;;5480985;25;20244;-70
2024/04/23 02:17:30;;;;;;;15.83;8.50;;;;;;;;;;5503632;26;20251;-70
2024/04/23 02:19:55;;;;;;;13.93;8.20;;;;;;;;;;5486592;26;20278;-70
2024/04/23 02:22:21;;;;;;;13.77;9.17;;;;;;;;;;5512157;25;20291;-71
2024/04/23 02:24:46;;;;;;;13.83;8.67;;;;;;;;;;5506350;26;20235;-70
2024/04/23 02:27:12;;;;;;;15.53;8.80;;;;;;;;;;5517679;25;20235;-71
2024/04/23 02:29:37;;;;;;;15.60;9.00;;;;;;;;;;5523915;25;20250;-70
2024/04/23 02:32:03;;;;;;;14.03;8.87;;;;;;;;;;5490643;25;20232;-70
2024/04/23 02:34:29;;;;;;;16.17;8.83;;;;;;;;;;5479107;25;20290;-70
2024/04/23 02:36:55;;;;;;;13.53;8.83;;;;;;;;;;5525890;25;20307;-70
2024/04/23 02:39:21;;;;;;;16.53;8.90;;;;;;;;;;5521957;26;20617;-70
2024/04/23 02:41:49;;;;;;;16.33;9.83;;;;;;;;;;5519630;25;20622;-70
2024/04/23 02:44:14;;;;;;;14.10;9.03;;;;;;;;;;5517984;25;20254;-70
2024/04/23 02:46:40;;;;;;;13.70;8.93;;;;;;;;;;5518975;25;20400;-70
2024/04/23 02:49:05;;;;;;;16.33;9.37;;;;;;;;;;5517163;25;20338;-71
2024/04/23 02:51:31;;;;;;;15.97;9.00;;;;;;;;;;5520555;25;20239;-69
2024/04/23 02:53:56;;;;;;;15.10;8.83;;;;;;;;;;5529488;25;20231;-70
2024/04/23 02:56:21;;;;;;;15.87;8.83;;;;;;;;;;5484962;25;20312;-69
2024/04/23 02:58:47;;;;;;;18.20;9.07;;;;;;;;;;5510637;25;20267;-70
2024/04/23 03:01:12;;;;;;;15.07;9.47;;;;;;;;;;5515211;25;20251;-70
2024/04/23 03:03:38;;;;;;;14.73;9.53;;;;;;;;;;5486931;25;20290;-70
2024/04/23 03:06:03;;;;;;;14.60;9.20;;;;;;;;;;5528097;25;20326;-70
2024/04/23 03:08:29;;;;;;;16.90;9.30;;;;;;;;;;5515668;25;20275;-70
2024/04/23 03:10:55;;;;;;;14.73;9.60;;;;;;;;;;5520681;25;20235;-70
2024/04/23 03:13:20;;;;;;;17.33;10.23;;;;;;;;;;5518790;26;20532;-70
2024/04/23 03:15:45;;;;;;;16.23;10.30;;;;;;;;;;5533238;25;20263;-71
2024/04/23 03:18:11;;;;;;;19.20;10.93;;;;;;;;;;5521329;26;20299;-70
2024/04/23 03:20:37;;;;;;;19.70;10.53;;;;;;;;;;5472998;26;20251;-71
2024/04/23 03:23:02;;;;;;;18.97;11.07;;;;;;;;;;5514048;25;20236;-71
2024/04/23 03:25:27;;;;;;;18.37;11.07;;;;;;;;;;5537822;25;20238;-69
2024/04/23 03:27:53;;;;;;;23.30;12.17;;;;;;;;;;5503616;26;20282;-70
2024/04/23 03:30:18;;;;;;;21.87;12.37;;;;;;;;;;5513353;26;20270;-69
2024/04/23 03:32:44;;;;;;;20.63;12.17;;;;;;;;;;5518181;25;20235;-70
2024/04/23 03:35:09;;;;;;;27.07;14.17;;;;;;;;;;5522852;25;20333;-70
2024/04/23 03:37:35;;;;;;;21.93;12.77;;;;;;;;;;5519475;25;20303;-70
2024/04/23 03:40:00;;;;;;;27.40;13.37;;;;;;;;;;5510419;25;20668;-71
2024/04/23 03:42:25;;;;;;;24.20;13.23;;;;;;;;;;5516914;25;20289;-70
2024/04/23 03:44:51;;;;;;;26.70;13.57;;;;;;;;;;5517251;25;20682;-71
2024/04/23 03:47:16;;;;;;;23.10;13.00;;;;;;;;;;5515300;26;20557;-71
2024/04/23 03:50:00;;;;;;;23.50;13.43;;;;;;;;;;5520462;25;20286;-70
2024/04/23 03:52:26;;;;;;;25.63;13.53;;;;;;;;;;5519758;25;20248;-70
2024/04/23 03:54:52;;;;;;;26.10;14.03;;;;;;;;;;5521438;26;20244;-71
2024/04/23 03:57:17;;;;;;;25.10;12.70;;;;;;;;;;5521956;25;20235;-71
2024/04/23 03:59:43;;;;;;;27.50;14.23;;;;;;;;;;5519483;25;20673;-70
2024/04/23 04:07:36;;;;;;;23.87;13.40;;;;;;;;;;5521188;25;20260;-71
2024/04/23 04:10:02;;;;;;;27.03;14.07;;;;;;;;;;5518522;26;20322;-71
2024/04/23 04:12:27;;;;;;;21.47;12.20;;;;;;;;;;5519821;25;20247;-71
2024/04/23 04:14:53;;;;;;;23.50;12.80;;;;;;;;;;5518859;26;20239;-71
2024/04/23 04:17:18;;;;;;;23.93;12.53;;;;;;;;;;5491159;26;20292;-70
2024/04/23 04:19:44;;;;;;;24.33;13.13;;;;;;;;;;5521165;25;20808;-70
2024/04/23 04:22:09;;;;;;;22.73;13.70;;;;;;;;;;5520026;25;20349;-70
2024/04/23 04:24:34;;;;;;;23.73;13.00;;;;;;;;;;5520678;25;20278;-71
2024/04/23 04:27:00;;;;;;;24.03;13.80;;;;;;;;;;5521795;25;20790;-71
2024/04/23 04:29:25;;;;;;;22.63;13.13;;;;;;;;;;5521890;25;20232;-71
2024/04/23 04:31:51;;;;;;;22.67;12.83;;;;;;;;;;5520714;25;20243;-70
2024/04/23 04:34:16;;;;;;;26.70;14.20;;;;;;;;;;5547628;25;20308;-70
2024/04/23 04:36:42;;;;;;;24.63;13.57;;;;;;;;;;5508580;25;20704;-70
2024/04/23 04:39:07;;;;;;;24.40;13.67;;;;;;;;;;5521808;25;20274;-70
2024/04/23 04:41:32;;;;;;;23.00;12.83;;;;;;;;;;5519356;25;20294;-71
2024/04/23 04:43:58;;;;;;;23.57;13.30;;;;;;;;;;5523785;25;20558;-71
2024/04/23 04:46:24;;;;;;;26.07;13.20;;;;;;;;;;5521256;26;20228;-71
2024/04/23 04:48:50;;;;;;;23.10;13.60;;;;;;;;;;5499105;25;20762;-71
2024/04/23 04:51:15;;;;;;;25.70;13.23;;;;;;;;;;5519518;25;20243;-71
2024/04/23 04:53:40;;;;;;;28.00;13.77;;;;;;;;;;5520588;25;20614;-71
2024/04/23 04:56:06;;;;;;;26.63;13.93;;;;;;;;;;5510015;25;20806;-71
2024/04/23 04:58:32;;;;;;;23.73;13.23;;;;;;;;;;5522671;25;20687;-71
2024/04/23 05:00:57;;;;;;;24.57;13.67;;;;;;;;;;5511304;25;20477;-71
2024/04/23 05:03:22;;;;;;;21.87;11.83;;;;;;;;;;5517956;25;20235;-71
2024/04/23 05:05:48;;;;;;;23.73;13.83;;;;;;;;;;5508194;25;20239;-71
2024/04/23 05:08:13;;;;;;;23.93;13.63;;;;;;;;;;5519837;25;20273;-71
2024/04/23 05:10:39;;;;;;;24.73;13.10;;;;;;;;;;5510559;25;20279;-70
2024/04/23 05:13:04;;;;;;;25.50;13.43;;;;;;;;;;5519920;25;20271;-71
2024/04/23 05:15:30;;;;;;;26.87;13.70;;;;;;;;;;5540921;25;20312;-70
2024/04/23 05:17:55;;;;;;;24.37;13.40;;;;;;;;;;5509773;25;20241;-70
2024/04/23 05:20:21;;;;;;;24.17;13.63;;;;;;;;;;5521594;25;20376;-71
2024/04/23 05:22:46;;;;;;;26.93;14.43;;;;;;;;;;5506710;26;20824;-71
2024/04/23 05:25:12;;;;;;;26.97;14.87;;;;;;;;;;5521627;25;20495;-71
2024/04/23 05:27:37;;;;;;;27.60;14.47;;;;;;;;;;5490327;26;20286;-71
2024/04/23 05:30:03;;;;;;;27.10;15.57;;;;;;;;;;5518129;25;20243;-71
2024/04/23 05:32:47;;;;;;;29.43;15.97;;;;;;;;;;5520368;25;20384;-71
2024/04/23 05:35:13;;;;;;;31.67;15.63;;;;;;;;;;5480692;26;20247;-71
2024/04/23 05:37:38;;;;;;;30.40;16.33;;;;;;;;;;5485473;25;20771;-72
2024/04/23 05:40:05;;;;;;;28.90;15.93;;;;;;;;;;5519280;25;20282;-71
2024/04/23 05:42:31;;;;;;;32.97;16.40;;;;;;;;;;5467531;25;20240;-71
2024/04/23 05:44:56;;;;;;;34.63;18.00;;;;;;;;;;5515445;25;20804;-70
2024/04/23 05:47:22;;;;;;;33.37;17.53;;;;;;;;;;5514299;25;20599;-70
2024/04/23 05:50:25;;;;;;;32.60;16.50;;;;;;;;;;5511188;25;20353;-70
2024/04/23 05:53:28;;;;;;;36.50;17.57;;;;;;;;;;5518075;25;20239;-70
2024/04/23 05:55:53;;;;;;;29.20;16.87;;;;;;;;;;5516000;25;20595;-70
2024/04/23 05:58:19;;;;;;;30.83;18.00;;;;;;;;;;5492401;26;20239;-70
2024/04/23 06:00:44;;;;;;;30.73;17.73;;;;;;;;;;5482286;26;20279;-71
2024/04/23 06:03:10;;;;;;;31.90;17.77;;;;;;;;;;5519008;25;20608;-70
2024/04/23 06:05:35;;;;;;;31.50;18.23;;;;;;;;;;5514421;25;20283;-70
2024/04/23 06:08:01;;;;;;;34.17;19.37;;;;;;;;;;5523552;25;20239;-71
2024/04/23 06:10:26;;;;;;;32.30;18.63;;;;;;;;;;5477655;26;20581;-70
2024/04/23 06:12:52;;;;;;;34.63;19.73;;;;;;;;;;5513026;26;20247;-70
2024/04/23 06:15:17;;;;;;;33.83;19.23;;;;;;;;;;5479535;26;20244;-70
2024/04/23 06:17:43;;;;;;;32.77;18.47;;;;;;;;;;5518990;25;20278;-70
2024/04/23 06:20:08;;;;;;;33.20;18.97;;;;;;;;;;5485301;26;20239;-69
2024/04/23 06:22:36;;;;;;;32.07;18.07;;;;;;;;;;5518707;25;20227;-69
2024/04/23 06:25:03;;;;;;;33.17;19.83;;;;;;;;;;5518579;25;20231;-70
2024/04/23 06:27:29;;;;;;;30.37;19.43;;;;;;;;;;5515343;25;20695;-70
2024/04/23 06:29:55;;;;;;;32.10;17.90;;;;;;;;;;5517983;25;20248;-70
2024/04/23 06:32:21;;;;;;;30.33;18.87;;;;;;;;;;5514281;25;20277;-70
2024/04/23 06:34:49;;;;;;;29.57;17.73;;;;;;;;;;5514630;25;20278;-71
2024/04/23 06:37:15;;;;;;;29.93;18.30;;;;;;;;;;5512919;26;20723;-71
2024/04/23 06:39:42;;;;;;;30.57;17.37;;;;;;;;;;5523573;25;20282;-70
2024/04/23 06:42:09;;;;;;;28.13;16.63;;;;;;;;;;5507568;25;20255;-71
2024/04/23 06:44:34;;;;;;;30.90;17.90;;;;;;;;;;5501538;25;20771;-70
2024/04/23 06:47:00;;;;;;;27.40;16.07;;;;;;;;;;5513068;25;20342;-70
2024/04/23 06:49:26;;;;;;;27.90;18.23;;;;;;;;;;5495647;25;20273;-71
2024/04/23 06:51:51;;;;;;;25.43;16.67;;;;;;;;;;5517568;25;20227;-70
2024/04/23 06:54:17;;;;;;;23.17;15.13;;;;;;;;;;5512902;25;20588;-71
2024/04/23 06:56:43;;;;;;;28.83;15.80;;;;;;;;;;5510221;25;20248;-71
2024/04/23 06:59:09;;;;;;;22.83;14.73;;;;;;;;;;5527612;25;20236;-71
2024/04/23 07:01:35;;;;;;;46.53;16.67;;;;;;;;;;5516087;25;20334;-71
2024/04/23 07:04:00;;;;;;;23.27;14.53;;;;;;;;;;5518259;25;20231;-71
2024/04/23 07:06:26;;;;;;;23.17;14.80;;;;;;;;;;5505807;25;20338;-71
2024/04/23 07:08:52;;;;;;;23.20;15.10;;;;;;;;;;5517399;25;20278;-70
2024/04/23 07:11:18;;;;;;;22.23;14.30;;;;;;;;;;5515420;26;20278;-70
2024/04/23 07:13:45;;;;;;;19.20;13.73;;;;;;;;;;5518404;25;20604;-70
2024/04/23 07:16:13;;;;;;;18.43;13.27;;;;;;;;;;5518919;25;20239;-70
2024/04/23 07:18:39;;;;;;;19.43;13.60;;;;;;;;;;5538681;25;20375;-70
2024/04/23 07:21:05;;;;;;;19.97;13.47;;;;;;;;;;5530084;25;20283;-70
2024/04/23 07:23:30;;;;;;;22.27;14.07;;;;;;;;;;5516078;26;20239;-70
2024/04/23 07:25:56;;;;;;;20.10;13.97;;;;;;;;;;5487381;26;20343;-70
2024/04/23 07:28:21;;;;;;;18.90;13.00;;;;;;;;;;5521592;25;20295;-69
2024/04/23 07:30:50;;;;;;;19.23;13.07;;;;;;;;;;5543692;25;20234;-70
2024/04/23 07:33:17;;;;;;;16.73;11.70;;;;;;;;;;5529214;25;20239;-71
2024/04/23 07:35:45;;;;;;;16.97;12.20;;;;;;;;;;5520265;26;20231;-69
2024/04/23 07:38:11;;;;;;;17.37;13.20;;;;;;;;;;5521262;25;20260;-70
2024/04/23 07:40:38;;;;;;;17.02;12.63;;;;;;;;;;5531237;25;20232;-71
2024/04/23 07:43:03;;;;;;;18.07;12.27;;;;;;;;;;5534555;25;20238;-71
2024/04/23 07:45:29;;;;;;;20.63;12.32;;;;;;;;;;5518409;25;20278;-70
2024/04/23 07:47:55;;;;;;;16.67;12.35;;;;;;;;;;5521303;25;20270;-70
2024/04/23 07:50:21;;;;;;;16.02;11.43;;;;;;;;;;5507671;25;20251;-70
2024/04/23 07:52:47;;;;;;;18.03;11.50;;;;;;;;;;5522288;25;20254;-70
2024/04/23 07:55:12;;;;;;;15.63;11.52;;;;;;;;;;5537704;25;20754;-70
2024/04/23 07:57:38;;;;;;;16.67;11.35;;;;;;;;;;5520839;25;20228;-70
2024/04/23 08:00:04;;;;;;;13.80;9.07;;;;;;;;;;5522427;25;20227;-70
2024/04/23 08:02:30;;;;;;;12.30;8.70;;;;;;;;;;5526082;25;20244;-70
2024/04/23 08:04:55;;;;;;;15.07;10.10;;;;;;;;;;5518476;26;20231;-70
2024/04/23 08:07:21;;;;;;;16.02;9.02;;;;;;;;;;5520354;26;20609;-70
2024/04/23 08:09:46;;;;;;;13.70;9.18;;;;;;;;;;5514300;25;20816;-71
2024/04/23 08:12:12;;;;;;;14.52;8.98;;;;;;;;;;5532616;25;20236;-71
2024/04/23 08:14:37;;;;;;;11.70;8.55;;;;;;;;;;5470721;26;20697;-71
2024/04/23 08:17:02;;;;;;;12.27;8.52;;;;;;;;;;5514423;25;20247;-70
2024/04/23 08:19:28;;;;;;;9.00;7.22;;;;;;;;;;5522354;25;20239;-70
2024/04/23 08:21:55;;;;;;;10.20;6.90;;;;;;;;;;5518168;25;20231;-70
2024/04/23 08:24:20;;;;;;;10.13;6.70;;;;;;;;;;5520312;25;20270;-70
2024/04/23 08:26:46;;;;;;;11.57;7.15;;;;;;;;;;5518924;26;20593;-71
2024/04/23 08:29:11;;;;;;;11.63;7.28;;;;;;;;;;5519097;25;20240;-71
2024/04/23 08:31:37;;;;;;;9.35;6.70;;;;;;;;;;5519358;26;20361;-71
2024/04/23 08:34:02;;;;;;;8.68;6.57;;;;;;;;;;5521051;25;20308;-71
2024/04/23 08:36:28;;;;;;;9.85;7.30;;;;;;;;;;5520538;25;20339;-71
2024/04/23 08:38:54;;;;;;;10.63;6.85;;;;;;;;;;5499590;26;20233;-71
2024/04/23 08:41:26;;;;;;;11.15;6.82;;;;;;;;;;5519837;25;20261;-70
2024/04/23 08:44:11;;;;;;;11.00;6.82;;;;;;;;;;5516931;25;20379;-71
2024/04/23 08:46:37;;;;;;;11.10;6.95;;;;;;;;;;5520092;25;20749;-71
2024/04/23 08:49:04;;;;;;;11.07;7.63;;;;;;;;;;5518942;25;20227;-70
2024/04/23 08:51:31;;;;;;;13.45;7.47;;;;;;;;;;5520653;25;20290;-71
2024/04/23 08:53:58;;;;;;;9.90;7.40;;;;;;;;;;5525035;25;20262;-69
2024/04/23 08:56:30;;;;;;;9.43;6.68;;;;;;;;;;5518523;25;20342;-69
2024/04/23 08:58:56;;;;;;;9.82;7.10;;;;;;;;;;5519255;26;20240;-70
2024/04/23 09:01:28;;;;;;;8.73;6.60;;;;;;;;;;5511635;25;20383;-69
2024/04/23 09:03:57;;;;;;;9.48;6.90;;;;;;;;;;5505742;25;20240;-70
2024/04/23 09:06:26;;;;;;;11.55;6.60;;;;;;;;;;5506334;25;20299;-70
2024/04/23 09:08:57;;;;;;;8.80;6.63;;;;;;;;;;5510929;25;20667;-70
2024/04/23 09:11:25;;;;;;;10.75;6.75;;;;;;;;;;5516099;26;20324;-70
2024/04/23 09:13:51;;;;;;;9.23;6.75;;;;;;;;;;5515196;25;20231;-71
2024/04/23 09:16:16;;;;;;;10.63;7.35;;;;;;;;;;5526265;25;20303;-72
2024/04/23 09:18:42;;;;;;;7.55;6.30;;;;;;;;;;5516948;26;20274;-72
2024/04/23 09:21:08;;;;;;;7.93;6.45;;;;;;;;;;5519341;26;20266;-71
2024/04/23 09:23:34;;;;;;;8.93;6.75;;;;;;;;;;5513827;25;20236;-72
2024/04/23 09:26:03;;;;;;;11.20;6.95;;;;;;;;;;5523583;25;20239;-71
2024/04/23 09:28:35;;;;;;;8.52;6.35;;;;;;;;;;5516781;25;20243;-72
2024/04/23 09:31:02;;;;;;;7.65;5.63;;;;;;;;;;5510499;25;20355;-72
2024/04/23 09:33:29;;;;;;;7.68;6.22;;;;;;;;;;5501980;25;20278;-72
2024/04/23 09:36:22;;;;;;;7.20;5.72;;;;;;;;;;5519215;25;20379;-71
2024/04/23 09:38:50;;;;;;;9.57;5.82;;;;;;;;;;5508993;26;20243;-71
2024/04/23 09:41:16;;;;;;;7.88;6.00;;;;;;;;;;5513414;25;20640;-72
2024/04/23 09:43:53;;;;;;;8.63;5.70;;;;;;;;;;5486964;26;20375;-72
2024/04/23 09:46:18;;;;;;;9.65;5.40;;;;;;;;;;5505404;25;20285;-72
2024/04/23 09:48:44;;;;;;;6.43;5.10;;;;;;;;;;5512833;26;20607;-72
2024/04/23 09:51:09;;;;;;;6.85;5.70;;;;;;;;;;5516587;25;20252;-72
2024/04/23 09:53:36;;;;;;;8.07;5.88;;;;;;;;;;5520346;26;20235;-71
2024/04/23 09:56:06;;;;;;;9.00;5.70;;;;;;;;;;5509194;25;20295;-70
2024/04/23 09:58:33;;;;;;;6.45;5.45;;;;;;;;;;5506042;26;20310;-72
2024/04/23 10:00:59;;;;;;;6.03;5.18;;;;;;;;;;5518813;25;20307;-71
2024/04/23 10:03:26;;;;;;;7.65;6.03;;;;;;;;;;5519937;25;20236;-70
2024/04/23 10:05:57;;;;;;;6.68;5.00;;;;;;;;;;5531741;25;20273;-70
2024/04/23 10:08:58;;;;;;;8.10;4.32;;;;;;;;;;5521967;25;20351;-70
2024/04/23 10:11:49;;;;;;;7.35;4.78;;;;;;;;;;5516500;26;20677;-74
2024/04/23 10:14:23;;;;;;;7.03;5.13;;;;;;;;;;5504419;25;20299;-71
2024/04/23 10:16:55;;;;;;;7.80;5.32;;;;;;;;;;5515430;25;20270;-71
2024/04/23 10:19:22;;;;;;;6.65;5.22;;;;;;;;;;5505705;26;20239;-70
2024/04/23 10:21:49;;;;;;;5.50;4.82;;;;;;;;;;5520058;25;20262;-71
2024/04/23 10:24:14;;;;;;;7.50;5.78;;;;;;;;;;5517486;25;20575;-72
2024/04/23 10:26:42;;;;;;;7.68;5.68;;;;;;;;;;5528275;25;20289;-72
2024/04/23 10:29:09;;;;;;;8.73;5.55;;;;;;;;;;5520033;25;20267;-71
2024/04/23 10:31:35;;;;;;;6.68;5.75;;;;;;;;;;5520113;25;20400;-71
2024/04/23 10:34:06;;;;;;;6.10;5.45;;;;;;;;;;5487030;25;20243;-71
2024/04/23 10:36:35;;;;;;;7.57;5.80;;;;;;;;;;5526067;25;20226;-72
2024/04/23 10:39:03;;;;;;;10.85;5.75;;;;;;;;;;5516700;25;20589;-71
2024/04/23 10:41:31;;;;;;;7.13;5.47;;;;;;;;;;5519115;25;20748;-71
2024/04/23 10:43:58;;;;;;;5.88;4.68;;;;;;;;;;5518713;25;20239;-71
2024/04/23 10:46:24;;;;;;;5.85;4.35;;;;;;;;;;5518473;25;20239;-71
2024/04/23 10:48:54;;;;;;;5.60;4.68;;;;;;;;;;5522957;25;20409;-71
2024/04/23 10:51:25;;;;;;;6.68;4.22;;;;;;;;;;5518673;25;20235;-73
2024/04/23 10:53:51;;;;;;;6.20;4.65;;;;;;;;;;5516871;25;20235;-71
2024/04/23 10:56:36;;;;;;;6.18;4.40;;;;;;;;;;5515482;26;20243;-71
2024/04/23 10:59:11;;;;;;;5.30;4.28;;;;;;;;;;5520979;25;20240;-71
2024/04/23 11:02:05;;;;;;;5.75;4.68;;;;;;;;;;5515263;26;20410;-71
2024/04/23 11:04:34;;;;;;;4.82;4.13;;;;;;;;;;5510914;25;20247;-71
2024/04/23 11:07:11;;;;;;;5.78;4.38;;;;;;;;;;5511110;26;20362;-71
2024/04/23 11:09:45;;;;;;;7.60;4.90;;;;;;;;;;5499320;25;20239;-72
2024/04/23 11:12:17;;;;;;;7.97;4.95;;;;;;;;;;5514007;25;20243;-71
2024/04/23 11:14:43;;;;;;;5.80;4.40;;;;;;;;;;5516450;26;20236;-70
2024/04/23 11:17:08;;;;;;;7.30;4.90;;;;;;;;;;5518325;25;20287;-71
2024/04/23 11:19:38;;;;;;;7.03;4.15;;;;;;;;;;5535127;25;20682;-71
2024/04/23 11:22:15;;;;;;;6.70;4.70;;;;;;;;;;5515849;25;20262;-73
2024/04/23 11:24:44;;;;;;;5.90;4.40;;;;;;;;;;5517030;26;20257;-72
2024/04/23 11:27:12;;;;;;;6.68;4.28;;;;;;;;;;5517140;25;20798;-72
2024/04/23 11:29:46;;;;;;;6.57;4.50;;;;;;;;;;5529637;25;20291;-71
2024/04/23 11:32:12;;;;;;;5.18;4.00;;;;;;;;;;5516274;25;20771;-71
2024/04/23 11:34:40;;;;;;;5.70;4.10;;;;;;;;;;5519336;25;20311;-74
2024/04/23 11:37:06;;;;;;;5.13;4.20;;;;;;;;;;5489855;26;20236;-72
2024/04/23 11:39:32;;;;;;;5.90;4.38;;;;;;;;;;5476824;26;20329;-72
2024/04/23 11:41:58;;;;;;;6.00;4.50;;;;;;;;;;5518256;25;20305;-71
2024/04/23 11:44:27;;;;;;;5.45;4.38;;;;;;;;;;5518929;25;20236;-71
2024/04/23 11:46:57;;;;;;;6.82;4.00;;;;;;;;;;5519385;25;20635;-72
2024/04/23 11:49:26;;;;;;;4.00;3.47;;;;;;;;;;5525003;25;20738;-71
2024/04/23 11:51:54;;;;;;;4.88;3.88;;;;;;;;;;5523448;25;20223;-71
2024/04/23 11:54:21;;;;;;;5.60;3.33;;;;;;;;;;5524825;25;20240;-74
2024/04/23 11:56:48;;;;;;;4.45;3.80;;;;;;;;;;5503342;26;20240;-70
2024/04/23 11:59:24;;;;;;;4.28;3.78;;;;;;;;;;5512346;25;20273;-72
2024/04/23 12:01:50;;;;;;;5.00;4.15;;;;;;;;;;5508947;25;20768;-71
2024/04/23 12:04:17;;;;;;;5.28;3.95;;;;;;;;;;5514768;25;20236;-72
2024/04/23 12:06:44;;;;;;;5.07;4.00;;;;;;;;;;5482513;25;20306;-70
2024/04/23 12:09:11;;;;;;;5.30;4.20;;;;;;;;;;5520288;25;20319;-72
2024/04/23 12:11:37;;;;;;;5.03;4.10;;;;;;;;;;5519611;25;20282;-71
2024/04/23 12:14:03;;;;;;;6.07;4.97;;;;;;;;;;5546932;25;20290;-71
2024/04/23 12:16:29;;;;;;;5.03;4.22;;;;;;;;;;5519297;25;20871;-71
2024/04/23 12:18:54;;;;;;;4.85;4.28;;;;;;;;;;5527995;25;20356;-71
2024/04/23 12:21:23;;;;;;;6.10;4.50;;;;;;;;;;5515767;25;20720;-73
2024/04/23 12:23:52;;;;;;;4.60;4.03;;;;;;;;;;5521469;25;20316;-72
2024/04/23 12:26:18;;;;;;;5.05;4.10;;;;;;;;;;5522693;25;20732;-74
2024/04/23 12:28:44;;;;;;;4.25;3.58;;;;;;;;;;5523789;25;20258;-72
2024/04/23 12:31:12;;;;;;;6.05;4.40;;;;;;;;;;5489877;25;20244;-73
2024/04/23 12:33:37;;;;;;;6.10;4.57;;;;;;;;;;5537086;25;20250;-72
2024/04/23 12:36:08;;;;;;;5.20;4.07;;;;;;;;;;5530035;25;20231;-72
2024/04/23 12:38:44;;;;;;;6.35;3.90;;;;;;;;;;5519893;25;20228;-71
2024/04/23 12:41:20;;;;;;;5.38;4.40;;;;;;;;;;5519413;25;20278;-74
2024/04/23 12:43:48;;;;;;;6.68;4.22;;;;;;;;;;5442013;25;20243;-72
2024/04/23 12:46:15;;;;;;;4.28;3.85;;;;;;;;;;5521070;25;20244;-72
2024/04/23 12:48:42;;;;;;;5.05;4.28;;;;;;;;;;5527791;25;20228;-72
2024/04/23 12:51:08;;;;;;;5.43;4.15;;;;;;;;;;5517356;25;20228;-73
2024/04/23 12:53:33;;;;;;;5.18;4.10;;;;;;;;;;5476470;26;20259;-73
2024/04/23 12:55:59;;;;;;;5.53;4.00;;;;;;;;;;5513087;25;20290;-74
2024/04/23 12:58:27;;;;;;;4.85;3.55;;;;;;;;;;5507489;25;20233;-72
2024/04/23 13:00:53;;;;;;;6.13;3.90;;;;;;;;;;5527955;25;20231;-71
2024/04/23 13:03:19;;;;;;;5.63;3.88;;;;;;;;;;5486330;26;20235;-72
2024/04/23 13:05:46;;;;;;;5.03;4.13;;;;;;;;;;5525929;25;20235;-72
2024/04/23 13:08:12;;;;;;;5.97;4.15;;;;;;;;;;5520067;25;20290;-72
2024/04/23 13:10:38;;;;;;;4.60;4.05;;;;;;;;;;5510813;25;20274;-71
2024/04/23 13:13:08;;;;;;;4.60;3.85;;;;;;;;;;5529441;25;20703;-72
2024/04/23 13:15:38;;;;;;;6.53;4.07;;;;;;;;;;5515210;26;20319;-71
2024/04/23 13:18:09;;;;;;;6.93;4.43;;;;;;;;;;5510202;25;20244;-72
2024/04/23 13:20:35;;;;;;;5.18;4.18;;;;;;;;;;5514318;25;20247;-71
2024/04/23 13:23:05;;;;;;;5.88;4.45;;;;;;;;;;5518808;25;20384;-71
2024/04/23 13:25:34;;;;;;;5.68;3.90;;;;;;;;;;5518985;25;20235;-73
2024/04/23 13:27:59;;;;;;;4.47;3.67;;;;;;;;;;5530079;25;20559;-71
2024/04/23 13:30:25;;;;;;;4.85;4.20;;;;;;;;;;5518958;25;20247;-72
2024/04/23 13:32:50;;;;;;;5.55;4.07;;;;;;;;;;5506480;25;20316;-72
2024/04/23 13:35:16;;;;;;;5.47;3.90;;;;;;;;;;5519096;25;20236;-72
2024/04/23 13:37:41;;;;;;;4.88;3.90;;;;;;;;;;5527329;25;20273;-72
2024/04/23 13:40:09;;;;;;;5.07;3.90;;;;;;;;;;5519166;25;20236;-72
2024/04/23 13:42:35;;;;;;;5.25;4.00;;;;;;;;;;5515693;26;20316;-72
2024/04/23 13:45:01;;;;;;;5.78;4.15;;;;;;;;;;5518739;25;20347;-70
2024/04/23 13:47:38;;;;;;;5.40;3.40;;;;;;;;;;5524339;25;20715;-73
2024/04/23 13:50:08;;;;;;;8.70;3.80;;;;;;;;;;5545306;25;20584;-73
2024/04/23 13:52:37;;;;;;;4.28;3.60;;;;;;;;;;5487664;26;20271;-73
2024/04/23 13:55:02;;;;;;;4.55;3.95;;;;;;;;;;5518841;26;20400;-74
2024/04/23 13:57:28;;;;;;;6.32;3.90;;;;;;;;;;5524982;25;20234;-72
2024/04/23 13:59:53;;;;;;;5.35;3.72;;;;;;;;;;5520154;25;20715;-73
2024/04/23 14:02:20;;;;;;;5.22;3.38;;;;;;;;;;5520098;25;20526;-72
2024/04/23 14:04:46;;;;;;;3.83;3.40;;;;;;;;;;5485526;26;20283;-72
2024/04/23 14:07:12;;;;;;;6.47;3.70;;;;;;;;;;5521836;25;20232;-73
2024/04/23 14:09:38;;;;;;;4.85;3.45;;;;;;;;;;5520376;25;20236;-73
2024/04/23 14:12:03;;;;;;;4.60;3.75;;;;;;;;;;5515328;25;20294;-72
2024/04/23 14:14:29;;;;;;;5.05;3.75;;;;;;;;;;5512418;25;20240;-73
2024/04/23 14:16:54;;;;;;;7.65;3.42;;;;;;;;;;5480645;26;20269;-72
2024/04/23 14:19:23;;;;;;;6.20;3.25;;;;;;;;;;5517685;25;20638;-74
2024/04/23 14:21:50;;;;;;;5.22;3.38;;;;;;;;;;5519046;25;20270;-73
2024/04/23 14:24:15;;;;;;;3.95;3.30;;;;;;;;;;5519506;25;20227;-73
2024/04/23 14:26:41;;;;;;;4.90;3.30;;;;;;;;;;5525015;25;20232;-71
2024/04/23 14:29:06;;;;;;;6.03;3.08;;;;;;;;;;5510139;25;20357;-72
2024/04/23 14:31:34;;;;;;;5.47;3.90;;;;;;;;;;5518130;25;20223;-70
2024/04/23 14:34:00;;;;;;;7.65;4.20;;;;;;;;;;5510639;25;20228;-73
2024/04/23 14:36:26;;;;;;;5.07;3.47;;;;;;;;;;5523718;25;20339;-72